Time;durP1;ratioP1;P1;durP2;ratioP2;P2;SDS_P1;SDS_P2;PMS_P1;PMS_P2;Temp;Humidity;BMP_temperature;BMP_pressure;BME280_temperature;BME280_humidity;BME280_pressure;Samples;Min_cycle;Max_cycle;Signal;HPM_P1;HPM_P2
2022/09/03 04:01:57;;;;;;;2.03;1.97;;;18.00;94.70;;;;;;5290716;23;20525;-62
2022/09/03 04:04:24;;;;;;;2.03;1.93;;;18.10;94.80;;;;;;4978181;28;20461;-62
2022/09/03 04:06:50;;;;;;;2.53;2.33;;;18.10;94.90;;;;;;4977904;28;20483;-62
2022/09/03 04:09:17;;;;;;;2.00;1.90;;;18.10;95.00;;;;;;4978079;28;20443;-62
2022/09/03 04:11:44;;;;;;;2.10;2.00;;;18.00;95.20;;;;;;4978560;28;20470;-62
2022/09/03 04:14:10;;;;;;;2.20;2.10;;;18.00;95.40;;;;;;4977827;28;20461;-62
2022/09/03 04:16:37;;;;;;;5.00;1.63;;;18.00;95.60;;;;;;4978048;28;20454;-63
2022/09/03 04:19:05;;;;;;;4.00;1.80;;;18.00;95.90;;;;;;4977340;28;20451;-63
2022/09/03 04:21:32;;;;;;;2.10;2.00;;;18.00;96.00;;;;;;4977380;28;20474;-62
2022/09/03 04:23:59;;;;;;;2.00;1.80;;;17.90;96.20;;;;;;4977977;28;20545;-62
2022/09/03 04:26:30;;;;;;;4.83;2.20;;;17.90;96.20;;;;;;4977537;28;20466;-64
2022/09/03 04:28:57;;;;;;;1.93;1.83;;;17.90;96.40;;;;;;4977648;28;20448;-62
2022/09/03 04:31:24;;;;;;;1.93;1.93;;;17.90;96.50;;;;;;4977213;28;20482;-62
2022/09/03 04:33:50;;;;;;;2.00;1.80;;;17.90;96.70;;;;;;4977122;28;20454;-62
2022/09/03 04:36:20;;;;;;;2.13;2.03;;;17.90;96.90;;;;;;4977446;28;20463;-62
2022/09/03 04:38:48;;;;;;;3.03;1.97;;;17.90;97.00;;;;;;4977761;28;20489;-62
2022/09/03 04:41:17;;;;;;;2.90;2.20;;;17.90;97.30;;;;;;4977068;28;20475;-62
2022/09/03 04:43:44;;;;;;;2.03;1.93;;;17.90;97.40;;;;;;4977413;28;20439;-63
2022/09/03 04:46:12;;;;;;;2.70;2.17;;;17.90;97.50;;;;;;4977424;28;20879;-63
2022/09/03 04:48:40;;;;;;;2.13;1.83;;;17.90;97.60;;;;;;4977108;28;20485;-63
2022/09/03 04:51:09;;;;;;;2.17;2.07;;;17.90;97.80;;;;;;4976944;28;20474;-63
2022/09/03 04:53:39;;;;;;;2.23;2.13;;;17.90;98.00;;;;;;4977317;28;20459;-63
2022/09/03 04:56:13;;;;;;;1.60;1.60;;;17.90;98.20;;;;;;4977227;28;20464;-62
2022/09/03 04:58:40;;;;;;;2.40;2.20;;;17.90;98.50;;;;;;4977057;28;20489;-62
2022/09/03 05:01:08;;;;;;;2.00;1.80;;;17.90;98.70;;;;;;4976882;28;21048;-62
2022/09/03 05:03:36;;;;;;;2.10;2.00;;;17.90;98.90;;;;;;4976830;28;20517;-62
2022/09/03 05:06:04;;;;;;;2.23;2.13;;;17.90;98.90;;;;;;4977042;28;20450;-62
2022/09/03 05:08:36;;;;;;;2.30;2.20;;;17.90;99.10;;;;;;4976825;28;20574;-62
2022/09/03 05:11:04;;;;;;;2.23;2.13;;;17.80;99.40;;;;;;4975909;28;20557;-62
2022/09/03 05:13:32;;;;;;;2.20;2.10;;;17.80;99.70;;;;;;4976672;28;20966;-62
2022/09/03 05:16:00;;;;;;;3.27;2.40;;;17.80;99.80;;;;;;4976513;28;20859;-62
2022/09/03 05:18:28;;;;;;;2.20;2.10;;;17.90;99.90;;;;;;4976816;28;20457;-62
2022/09/03 05:20:59;;;;;;;2.50;2.30;;;17.90;99.90;;;;;;4976474;28;20475;-62
2022/09/03 05:23:26;;;;;;;2.97;2.77;;;17.90;99.90;;;;;;4976339;28;20918;-62
2022/09/03 05:25:56;;;;;;;2.97;2.30;;;17.90;99.90;;;;;;4976378;28;20455;-62
2022/09/03 05:28:26;;;;;;;3.23;2.93;;;17.90;99.80;;;;;;4976431;28;20827;-63
2022/09/03 05:30:59;;;;;;;3.00;2.63;;;17.90;99.90;;;;;;4976499;28;20529;-63
2022/09/03 05:33:26;;;;;;;2.40;2.30;;;17.90;99.90;;;;;;4976731;28;20513;-62
2022/09/03 05:35:53;;;;;;;2.10;2.00;;;17.90;99.90;;;;;;4976313;28;20462;-62
2022/09/03 05:38:20;;;;;;;2.77;2.57;;;18.00;99.90;;;;;;4976221;28;20509;-62
2022/09/03 05:40:47;;;;;;;2.23;2.13;;;18.00;99.90;;;;;;4976590;28;20475;-62
2022/09/03 05:43:16;;;;;;;2.60;2.40;;;18.00;99.90;;;;;;4976294;28;20459;-62
2022/09/03 05:45:44;;;;;;;2.43;2.20;;;18.10;99.90;;;;;;4976067;28;20455;-62
2022/09/03 05:48:10;;;;;;;2.40;2.30;;;18.30;99.90;;;;;;4976163;28;20482;-62
2022/09/03 05:50:37;;;;;;;2.50;2.30;;;18.40;99.90;;;;;;4975946;28;20475;-63
2022/09/03 05:53:04;;;;;;;2.40;2.30;;;18.50;99.40;;;;;;4976359;28;20454;-62
2022/09/03 05:55:30;;;;;;;2.17;2.07;;;18.70;99.30;;;;;;4976146;28;20454;-62
2022/09/03 05:57:57;;;;;;;3.73;2.60;;;18.90;98.70;;;;;;4975585;28;20451;-62
2022/09/03 06:00:24;;;;;;;5.10;2.40;;;18.90;98.20;;;;;;4975553;28;20461;-62
2022/09/03 06:02:52;;;;;;;2.30;2.20;;;19.00;98.10;;;;;;4975839;28;20446;-62
2022/09/03 06:05:19;;;;;;;2.47;2.37;;;19.00;98.20;;;;;;4975824;28;20458;-61
2022/09/03 06:07:47;;;;;;;4.37;2.77;;;19.00;98.20;;;;;;4976380;28;20482;-61
2022/09/03 06:10:15;;;;;;;2.00;1.90;;;18.90;98.40;;;;;;4975304;28;20490;-62
2022/09/03 06:12:43;;;;;;;2.67;2.47;;;18.90;98.70;;;;;;4975720;28;20510;-62
2022/09/03 06:15:11;;;;;;;2.50;2.30;;;19.00;98.50;;;;;;4975653;28;20455;-62
2022/09/03 06:17:38;;;;;;;3.57;2.23;;;19.10;98.40;;;;;;4975636;28;20454;-62
2022/09/03 06:20:07;;;;;;;25.47;3.00;;;19.00;98.60;;;;;;4975495;28;20816;-62
2022/09/03 06:22:34;;;;;;;2.77;2.57;;;18.90;98.70;;;;;;4974982;28;20486;-62
2022/09/03 06:25:01;;;;;;;2.50;2.40;;;18.90;99.00;;;;;;4975537;28;20459;-62
2022/09/03 06:27:29;;;;;;;3.53;2.57;;;18.90;99.50;;;;;;4975465;28;20478;-62
2022/09/03 06:29:57;;;;;;;2.60;2.40;;;18.90;99.60;;;;;;4975487;28;20454;-62
2022/09/03 06:32:24;;;;;;;2.27;2.17;;;18.90;99.70;;;;;;4975380;28;20483;-61
2022/09/03 06:34:51;;;;;;;2.20;2.10;;;18.80;99.90;;;;;;4975396;28;20454;-62
2022/09/03 06:37:19;;;;;;;2.70;2.33;;;18.90;99.90;;;;;;4975156;28;20454;-61
2022/09/03 06:39:45;;;;;;;3.17;2.97;;;18.90;99.90;;;;;;4975041;28;20945;-61
2022/09/03 06:42:12;;;;;;;2.70;2.50;;;18.90;99.90;;;;;;4974952;28;20822;-61
2022/09/03 06:44:39;;;;;;;3.40;2.20;;;18.90;99.90;;;;;;4975385;28;20481;-62
2022/09/03 06:47:05;;;;;;;3.20;2.50;;;18.90;99.90;;;;;;4975312;28;20481;-62
2022/09/03 06:49:32;;;;;;;5.23;3.10;;;18.90;99.90;;;;;;4974856;28;20454;-61
2022/09/03 06:51:59;;;;;;;6.00;2.60;;;18.90;99.90;;;;;;4975270;28;20497;-63
2022/09/03 06:54:27;;;;;;;2.60;2.50;;;19.00;99.90;;;;;;4975219;28;20454;-64
2022/09/03 06:56:53;;;;;;;7.83;2.67;;;19.10;99.90;;;;;;4974851;28;20856;-64
2022/09/03 06:59:20;;;;;;;3.20;2.90;;;19.00;99.90;;;;;;4975138;28;20454;-63
2022/09/03 07:01:47;;;;;;;3.37;2.20;;;19.10;99.90;;;;;;4974821;28;20486;-64
2022/09/03 07:04:16;;;;;;;3.70;2.60;;;19.20;99.90;;;;;;4975012;28;20509;-64
2022/09/03 07:06:43;;;;;;;2.57;2.43;;;19.30;99.90;;;;;;4975320;28;20461;-63
2022/09/03 07:09:11;;;;;;;2.53;2.33;;;19.50;99.90;;;;;;4975239;28;20485;-66
2022/09/03 07:11:45;;;;;;;2.70;2.07;;;19.60;99.90;;;;;;4974453;28;20478;-63
2022/09/03 07:14:12;;;;;;;3.73;3.43;;;19.70;99.90;;;;;;4974803;28;20443;-64
2022/09/03 07:16:40;;;;;;;2.60;2.40;;;19.80;99.90;;;;;;4974925;28;20454;-64
2022/09/03 07:19:08;;;;;;;4.20;2.70;;;20.00;99.90;;;;;;4974813;28;20814;-65
2022/09/03 07:21:36;;;;;;;2.93;2.73;;;20.20;99.90;;;;;;4975153;28;20573;-64
2022/09/03 07:24:04;;;;;;;2.83;2.63;;;20.40;99.90;;;;;;4974964;28;20525;-64
2022/09/03 07:26:33;;;;;;;3.60;3.30;;;20.50;99.90;;;;;;4974783;28;20487;-64
2022/09/03 07:29:01;;;;;;;3.07;2.53;;;20.60;98.30;;;;;;4974537;28;20481;-64
2022/09/03 07:31:30;;;;;;;3.33;3.13;;;20.80;99.40;;;;;;4974702;28;20482;-64
2022/09/03 07:33:58;;;;;;;3.20;2.83;;;21.00;99.00;;;;;;4975925;28;20458;-64
2022/09/03 07:36:26;;;;;;;5.43;2.53;;;21.10;98.20;;;;;;4978320;28;20462;-64
2022/09/03 07:38:56;;;;;;;2.80;2.70;;;21.20;98.10;;;;;;4978395;28;20462;-64
2022/09/03 07:41:23;;;;;;;2.70;2.57;;;21.20;97.10;;;;;;4977990;28;20482;-64
2022/09/03 07:43:51;;;;;;;3.27;2.97;;;21.20;97.60;;;;;;4978264;28;20545;-64
2022/09/03 07:46:22;;;;;;;3.20;2.90;;;21.30;97.20;;;;;;4978237;28;20455;-64
2022/09/03 07:48:49;;;;;;;3.63;2.13;;;21.30;97.20;;;;;;4978057;28;20554;-64
2022/09/03 07:51:17;;;;;;;3.50;3.20;;;21.30;98.40;;;;;;4978135;28;20473;-64
2022/09/03 07:53:44;;;;;;;3.03;2.70;;;21.40;97.80;;;;;;4977992;28;20454;-64
2022/09/03 07:56:11;;;;;;;3.60;2.60;;;21.50;97.40;;;;;;4978050;28;20462;-64
2022/09/03 07:58:39;;;;;;;2.80;2.23;;;21.60;98.20;;;;;;4977610;28;20450;-62
2022/09/03 08:01:08;;;;;;;3.53;2.83;;;21.70;96.50;;;;;;4977354;28;20482;-62
2022/09/03 08:03:36;;;;;;;2.97;2.70;;;21.80;96.60;;;;;;4977760;28;20814;-62
2022/09/03 08:06:05;;;;;;;3.73;3.10;;;21.90;96.50;;;;;;4977584;28;20454;-62
2022/09/03 08:08:32;;;;;;;3.07;2.77;;;22.00;96.90;;;;;;4977952;28;21025;-62
2022/09/03 08:11:05;;;;;;;3.10;2.77;;;22.10;96.50;;;;;;4978063;28;20532;-62
2022/09/03 08:13:32;;;;;;;3.37;3.13;;;22.20;96.60;;;;;;4977948;28;20493;-62
2022/09/03 08:16:00;;;;;;;4.27;3.00;;;22.90;98.10;;;;;;4977512;28;20482;-62
2022/09/03 08:18:34;;;;;;;4.80;3.03;;;23.90;94.90;;;;;;4977309;28;20997;-63
2022/09/03 08:21:02;;;;;;;7.57;6.80;;;24.60;92.80;;;;;;4977206;28;20474;-61
2022/09/03 08:23:29;;;;;;;3.90;3.60;;;24.90;91.90;;;;;;4977504;28;20461;-61
2022/09/03 08:25:58;;;;;;;3.23;3.03;;;24.90;92.00;;;;;;4978007;28;20462;-61
2022/09/03 08:28:25;;;;;;;3.33;3.03;;;24.70;92.10;;;;;;4977122;28;20475;-62
2022/09/03 08:30:52;;;;;;;2.90;2.70;;;24.60;92.20;;;;;;4977420;28;20474;-62
2022/09/03 08:33:35;;;;;;;3.57;3.27;;;24.60;93.40;;;;;;4977287;28;20461;-62
2022/09/03 08:36:04;;;;;;;6.97;6.20;;;24.60;92.50;;;;;;4977024;28;20906;-62
2022/09/03 08:38:32;;;;;;;3.70;3.40;;;25.00;92.50;;;;;;4977193;28;20455;-62
2022/09/03 08:41:04;;;;;;;3.47;3.20;;;25.60;91.90;;;;;;4976915;28;20981;-62
2022/09/03 08:43:33;;;;;;;3.60;3.33;;;26.00;90.80;;;;;;4977451;28;20551;-61
2022/09/03 08:46:01;;;;;;;3.90;3.60;;;25.90;90.00;;;;;;4976935;28;20455;-62
2022/09/03 08:48:28;;;;;;;9.03;3.57;;;25.90;90.10;;;;;;4977083;28;20486;-63
2022/09/03 08:50:58;;;;;;;3.50;3.20;;;25.70;92.60;;;;;;4977012;28;20490;-62
2022/09/03 08:53:34;;;;;;;4.20;3.70;;;25.50;93.60;;;;;;4976928;28;20458;-62
2022/09/03 08:56:07;;;;;;;3.87;3.67;;;25.20;95.00;;;;;;4977088;28;20853;-63
2022/09/03 08:58:37;;;;;;;4.73;4.10;;;24.90;94.70;;;;;;4976918;28;20493;-62
2022/09/03 09:01:10;;;;;;;4.20;3.90;;;24.70;99.10;;;;;;4976578;28;20482;-62
2022/09/03 09:03:47;;;;;;;4.77;4.37;;;24.40;99.40;;;;;;4976837;28;20482;-62
2022/09/03 09:06:23;;;;;;;4.63;4.00;;;24.00;99.90;;;;;;4976577;28;20935;-63
2022/09/03 09:09:01;;;;;;;4.87;4.53;;;23.70;99.90;;;;;;4976527;28;20969;-62
2022/09/03 09:11:40;;;;;;;4.27;3.97;;;23.30;99.90;;;;;;4976616;28;20478;-62
2022/09/03 09:14:16;;;;;;;4.50;3.83;;;23.20;99.90;;;;;;4976600;28;20454;-62
2022/09/03 09:16:53;;;;;;;4.47;4.07;;;23.20;99.90;;;;;;4976518;28;20469;-62
2022/09/03 09:19:38;;;;;;;5.20;3.90;;;23.20;99.90;;;;;;4976488;28;20501;-62
2022/09/03 09:22:10;;;;;;;3.90;3.60;;;23.20;99.90;;;;;;4976531;28;20549;-63
2022/09/03 09:24:42;;;;;;;5.20;4.80;;;23.20;99.90;;;;;;4976236;28;20965;-62
2022/09/03 09:27:08;;;;;;;4.40;4.07;;;23.20;99.90;;;;;;4976464;28;20450;-62
2022/09/03 09:29:37;;;;;;;4.30;3.90;;;23.20;99.90;;;;;;4976237;28;20482;-62
2022/09/03 09:32:07;;;;;;;7.20;4.13;;;23.10;99.90;;;;;;4976272;28;20479;-62
2022/09/03 09:34:35;;;;;;;8.10;7.50;;;23.30;99.90;;;;;;4976221;28;20490;-62
2022/09/03 09:37:04;;;;;;;4.90;4.50;;;23.50;99.90;;;;;;4976272;28;20513;-62
2022/09/03 09:39:30;;;;;;;5.83;5.33;;;23.90;99.90;;;;;;4976212;28;20501;-64
2022/09/03 09:42:01;;;;;;;5.93;4.17;;;24.30;99.90;;;;;;4975932;28;20474;-62
2022/09/03 09:44:27;;;;;;;3.97;3.70;;;24.50;99.90;;;;;;4976081;28;20943;-63
2022/09/03 09:47:05;;;;;;;4.70;4.40;;;24.50;98.10;;;;;;4976272;28;20451;-62
2022/09/03 09:49:35;;;;;;;6.53;3.77;;;24.60;99.10;;;;;;4976119;28;20462;-61
2022/09/03 09:52:10;;;;;;;5.00;4.60;;;24.70;98.90;;;;;;4976116;28;20533;-62
2022/09/03 09:54:38;;;;;;;4.17;3.97;;;24.90;98.30;;;;;;4976272;28;20454;-63
2022/09/03 09:57:08;;;;;;;3.93;3.50;;;25.30;98.20;;;;;;4975204;28;20455;-63
2022/09/03 09:59:36;;;;;;;4.07;3.77;;;26.10;96.00;;;;;;4976596;28;20453;-63
2022/09/03 10:02:10;;;;;;;5.13;3.87;;;26.90;94.90;;;;;;4975697;28;20911;-63
2022/09/03 10:04:38;;;;;;;3.50;3.20;;;27.90;93.10;;;;;;4976189;28;20439;-64
2022/09/03 10:07:17;;;;;;;4.57;4.17;;;28.60;90.80;;;;;;4975599;28;20493;-64
2022/09/03 10:09:44;;;;;;;4.07;3.80;;;28.70;90.00;;;;;;4975913;28;20473;-63
2022/09/03 10:12:19;;;;;;;3.77;3.50;;;28.70;84.20;;;;;;4975819;28;20474;-64
2022/09/03 10:14:53;;;;;;;5.03;3.33;;;28.00;85.40;;;;;;4975768;28;20517;-63
2022/09/03 10:17:27;;;;;;;4.10;3.00;;;27.40;88.00;;;;;;4975889;28;20462;-63
2022/09/03 10:22:54;;;;;;;6.33;5.90;;;26.70;88.70;;;;;;4975988;28;20492;-62
2022/09/03 10:25:23;;;;;;;6.67;5.00;;;26.70;91.50;;;;;;4977925;28;20449;-64
2022/09/03 10:27:53;;;;;;;4.40;4.00;;;27.50;90.30;;;;;;4977766;28;20478;-67
2022/09/03 10:30:21;;;;;;;4.33;4.10;;;28.00;88.20;;;;;;4976829;28;20502;-63
2022/09/03 10:33:08;;;;;;;3.07;2.87;;;28.40;84.20;;;;;;4976721;28;20451;-62
2022/09/03 10:35:41;;;;;;;3.77;3.50;;;28.60;87.20;;;;;;4976329;28;20443;-63
2022/09/03 10:38:17;;;;;;;4.80;4.40;;;28.50;83.20;;;;;;4975971;28;20439;-63
2022/09/03 10:40:53;;;;;;;3.47;3.17;;;28.60;82.70;;;;;;4976030;28;20500;-62
2022/09/03 10:43:40;;;;;;;4.67;3.50;;;28.60;83.00;;;;;;4977197;28;20501;-63
2022/09/03 10:46:11;;;;;;;6.13;3.90;;;28.70;82.90;;;;;;4976341;28;20474;-63
2022/09/03 10:49:12;;;;;;;4.23;3.90;;;28.90;81.70;;;;;;4975671;28;20467;-63
2022/09/03 10:51:44;;;;;;;2.90;2.80;;;29.10;80.10;;;;;;4973769;28;20489;-63
2022/09/03 10:54:27;;;;;;;3.50;3.20;;;29.80;78.40;;;;;;4975425;28;20442;-63
2022/09/03 10:57:03;;;;;;;4.00;3.13;;;30.30;74.70;;;;;;4975448;28;20470;-63
2022/09/03 10:59:46;;;;;;;4.10;3.27;;;30.50;74.50;;;;;;4975607;28;20796;-63
2022/09/03 11:02:47;;;;;;;4.43;3.20;;;30.90;71.20;;;;;;4974980;28;20490;-64
2022/09/03 11:05:18;;;;;;;5.33;3.33;;;31.00;70.70;;;;;;4975768;28;20438;-63
2022/09/03 11:07:48;;;;;;;3.40;3.27;;;30.50;69.10;;;;;;4975639;28;20446;-64
2022/09/03 11:10:21;;;;;;;3.30;2.80;;;29.60;71.00;;;;;;4978779;28;20466;-63
2022/09/03 11:12:55;;;;;;;3.37;3.07;;;29.20;73.30;;;;;;4979248;28;20434;-63
2022/09/03 11:15:27;;;;;;;3.50;3.30;;;28.90;74.10;;;;;;4979215;28;20442;-63
2022/09/03 11:18:01;;;;;;;2.60;2.50;;;28.70;76.40;;;;;;4979208;28;20517;-63
2022/09/03 11:20:27;;;;;;;3.30;3.00;;;28.40;78.30;;;;;;4978899;28;20438;-62
2022/09/03 11:22:57;;;;;;;4.70;4.23;;;28.20;76.50;;;;;;4978896;28;20893;-64
2022/09/03 11:25:30;;;;;;;4.53;3.67;;;27.90;79.30;;;;;;4979082;28;20455;-63
2022/09/03 11:28:10;;;;;;;3.63;3.33;;;27.80;80.40;;;;;;4979220;28;20446;-66
2022/09/03 11:30:49;;;;;;;3.67;3.43;;;27.70;77.90;;;;;;4978953;28;20881;-65
2022/09/03 11:33:21;;;;;;;3.50;3.20;;;27.70;78.50;;;;;;4979446;28;20525;-65
2022/09/03 11:35:57;;;;;;;5.73;3.40;;;27.60;79.60;;;;;;4978560;28;20901;-64
2022/09/03 11:38:27;;;;;;;3.60;3.30;;;27.60;78.70;;;;;;4979747;28;20438;-64
2022/09/03 11:41:04;;;;;;;3.70;3.40;;;27.40;79.50;;;;;;4978822;28;20484;-65
2022/09/03 11:43:32;;;;;;;4.60;4.13;;;27.20;80.10;;;;;;4979469;28;20522;-65
2022/09/03 11:46:10;;;;;;;4.00;3.70;;;26.90;80.80;;;;;;4979006;28;20461;-64
2022/09/03 11:48:42;;;;;;;3.97;3.53;;;26.40;82.50;;;;;;4979177;28;20442;-64
2022/09/03 11:51:31;;;;;;;5.20;3.80;;;26.30;84.20;;;;;;4979045;28;20517;-65
2022/09/03 11:53:59;;;;;;;4.07;3.70;;;26.20;85.40;;;;;;4979200;28;20443;-64
2022/09/03 11:56:26;;;;;;;3.87;3.67;;;26.10;86.50;;;;;;4978885;28;20873;-64
2022/09/03 11:59:18;;;;;;;4.13;3.80;;;26.00;85.10;;;;;;4978960;28;20461;-64
2022/09/03 12:01:52;;;;;;;4.10;3.90;;;25.90;88.90;;;;;;4976741;28;20485;-64
2022/09/03 12:04:24;;;;;;;3.77;3.57;;;25.70;88.10;;;;;;4979362;28;20473;-67
2022/09/03 12:07:27;;;;;;;6.07;3.80;;;25.60;87.10;;;;;;4979299;28;20435;-65
2022/09/03 12:10:19;;;;;;;4.37;4.00;;;25.50;88.30;;;;;;4971640;28;20474;-64
2022/09/03 12:13:05;;;;;;;6.87;4.50;;;25.20;88.40;;;;;;4977344;28;20468;-64
2022/09/03 12:15:49;;;;;;;5.27;4.03;;;25.00;89.60;;;;;;4977568;28;20439;-64
2022/09/03 12:18:22;;;;;;;4.50;4.10;;;24.80;90.20;;;;;;4978335;28;20442;-64
2022/09/03 12:21:01;;;;;;;3.93;3.63;;;24.60;91.50;;;;;;4977208;28;20481;-66
2022/09/03 12:23:30;;;;;;;4.37;4.07;;;24.50;91.40;;;;;;4978044;28;20443;-66
2022/09/03 12:25:59;;;;;;;3.90;3.70;;;24.40;92.10;;;;;;4977720;28;20454;-64
2022/09/03 12:28:29;;;;;;;3.67;3.43;;;24.40;93.00;;;;;;4978031;28;20462;-63
2022/09/03 12:31:11;;;;;;;3.70;3.50;;;24.30;93.30;;;;;;4977505;28;20483;-63
2022/09/03 12:33:42;;;;;;;4.73;4.30;;;24.30;93.20;;;;;;4977193;28;20910;-63
2022/09/03 12:36:09;;;;;;;6.07;3.93;;;24.20;93.90;;;;;;4977292;28;20447;-63
2022/09/03 12:38:36;;;;;;;4.37;4.07;;;24.20;94.10;;;;;;4977336;28;20454;-62
2022/09/03 12:41:03;;;;;;;4.77;4.47;;;24.10;94.20;;;;;;4977452;28;20474;-63
2022/09/03 12:43:30;;;;;;;4.60;4.20;;;24.10;94.70;;;;;;4977384;28;20484;-63
2022/09/03 12:45:57;;;;;;;4.80;4.40;;;24.00;94.40;;;;;;4976990;28;20973;-63
2022/09/03 12:48:25;;;;;;;4.40;4.20;;;23.90;95.40;;;;;;4977143;28;20454;-63
2022/09/03 12:51:03;;;;;;;4.70;4.30;;;23.90;95.20;;;;;;4977090;28;20508;-63
2022/09/03 12:53:32;;;;;;;4.87;4.47;;;23.90;95.70;;;;;;4977292;28;20439;-63
2022/09/03 12:56:00;;;;;;;4.60;4.20;;;23.90;96.30;;;;;;4977130;28;20965;-62
2022/09/03 12:58:32;;;;;;;5.17;4.70;;;23.80;97.10;;;;;;4977303;28;20461;-62
2022/09/03 13:01:08;;;;;;;4.97;4.43;;;23.80;97.70;;;;;;4977936;28;20490;-63
2022/09/03 13:03:45;;;;;;;3.70;3.47;;;23.60;98.60;;;;;;4978974;28;20443;-62
2022/09/03 13:06:16;;;;;;;3.43;3.23;;;23.10;99.90;;;;;;4978372;28;20446;-62
2022/09/03 13:08:47;;;;;;;4.00;2.70;;;22.60;99.90;;;;;;4977640;28;20813;-62
2022/09/03 13:11:17;;;;;;;4.83;2.93;;;22.20;99.90;;;;;;4977047;28;20483;-62
2022/09/03 13:13:54;;;;;;;3.30;2.90;;;21.90;99.90;;;;;;4976440;28;20467;-62
2022/09/03 13:16:54;;;;;;;3.07;2.87;;;21.60;99.90;;;;;;4976899;28;20458;-62
2022/09/03 13:19:30;;;;;;;5.17;3.20;;;21.40;99.90;;;;;;4976861;28;20446;-62
2022/09/03 13:22:08;;;;;;;3.30;3.00;;;21.20;99.90;;;;;;4976527;28;20478;-62
2022/09/03 13:24:50;;;;;;;3.80;3.47;;;21.00;99.90;;;;;;4976623;28;20447;-62
2022/09/03 13:27:26;;;;;;;6.27;4.40;;;20.90;99.90;;;;;;4976305;28;20929;-62
2022/09/03 13:30:04;;;;;;;4.20;4.00;;;20.70;99.90;;;;;;4976396;28;20462;-62
2022/09/03 13:32:41;;;;;;;4.43;3.67;;;20.40;99.90;;;;;;4975077;28;20880;-61
2022/09/03 13:35:13;;;;;;;5.90;3.87;;;20.40;99.90;;;;;;4976203;28;21026;-61
2022/09/03 13:37:44;;;;;;;4.33;4.03;;;20.30;99.90;;;;;;4976332;28;20446;-62
2022/09/03 13:40:17;;;;;;;4.70;3.50;;;20.40;99.90;;;;;;4976418;28;20439;-62
2022/09/03 13:42:49;;;;;;;4.17;3.60;;;20.40;99.90;;;;;;4976054;28;20917;-61
2022/09/03 13:45:26;;;;;;;3.30;3.00;;;20.60;99.90;;;;;;4978470;28;20454;-61
2022/09/03 13:50:49;;;;;;;4.07;3.70;;;20.90;99.90;;;;;;4977162;28;20851;-62
2022/09/03 13:53:22;;;;;;;10.00;4.13;;;21.10;99.90;;;;;;4976217;28;20470;-62
2022/09/03 13:55:54;;;;;;;3.67;3.27;;;21.20;99.90;;;;;;4975588;28;20443;-62
2022/09/03 13:58:27;;;;;;;2.30;2.20;;;21.20;99.90;;;;;;4975835;28;20447;-61
2022/09/03 14:01:10;;;;;;;3.07;2.57;;;21.20;99.90;;;;;;4975528;28;21041;-64
2022/09/03 14:03:45;;;;;;;3.17;2.90;;;21.10;99.90;;;;;;4975572;28;20439;-63
2022/09/03 14:06:20;;;;;;;2.70;2.50;;;21.00;99.90;;;;;;4975974;28;20453;-64
2022/09/03 14:09:02;;;;;;;3.97;3.10;;;20.80;99.90;;;;;;4975515;28;20952;-64
2022/09/03 14:11:34;;;;;;;4.67;3.00;;;20.80;99.90;;;;;;4976120;28;20537;-64
2022/09/03 14:14:13;;;;;;;3.60;3.40;;;20.70;99.90;;;;;;4975430;28;20918;-64
2022/09/03 14:16:48;;;;;;;3.20;2.87;;;20.60;99.90;;;;;;4975565;28;20906;-64
2022/09/03 14:19:19;;;;;;;5.90;2.80;;;20.70;99.90;;;;;;4975709;28;20450;-64
2022/09/03 14:21:53;;;;;;;2.90;2.60;;;20.60;99.90;;;;;;4975459;28;20478;-64
2022/09/03 14:24:26;;;;;;;6.50;3.30;;;20.60;99.90;;;;;;4975136;28;20450;-64
2022/09/03 14:26:56;;;;;;;3.47;2.50;;;20.60;99.90;;;;;;4975821;28;20918;-65
2022/09/03 14:29:26;;;;;;;2.87;2.23;;;20.60;99.90;;;;;;4976340;28;20438;-65
2022/09/03 14:32:12;;;;;;;2.80;2.40;;;20.50;99.90;;;;;;4976007;28;20760;-65
2022/09/03 14:34:50;;;;;;;3.90;2.83;;;20.40;99.90;;;;;;4975113;28;20442;-64
2022/09/03 14:37:30;;;;;;;3.30;3.10;;;20.40;99.90;;;;;;4975651;28;20449;-63
2022/09/03 14:40:10;;;;;;;2.83;2.60;;;20.20;99.90;;;;;;4975318;28;20441;-64
2022/09/03 14:42:56;;;;;;;2.50;2.40;;;20.20;99.90;;;;;;4974871;28;20482;-64
2022/09/03 14:45:47;;;;;;;2.50;2.40;;;20.10;99.90;;;;;;4975243;28;20442;-64
2022/09/03 14:48:30;;;;;;;3.63;2.70;;;20.10;99.90;;;;;;4975161;28;20490;-64
2022/09/03 14:51:14;;;;;;;5.53;2.77;;;20.10;99.90;;;;;;4974714;28;20493;-64
2022/09/03 14:54:18;;;;;;;3.53;3.13;;;20.10;99.90;;;;;;4975199;28;20446;-64
2022/09/03 14:56:50;;;;;;;5.60;2.67;;;20.10;99.90;;;;;;4974852;28;20780;-64
2022/09/03 14:59:36;;;;;;;5.30;3.00;;;20.20;99.90;;;;;;4975070;28;20443;-63
2022/09/03 15:02:26;;;;;;;3.70;2.60;;;20.30;99.90;;;;;;4974336;28;21016;-63
2022/09/03 15:05:08;;;;;;;3.90;3.27;;;20.30;99.90;;;;;;4975062;28;20461;-64
2022/09/03 15:07:40;;;;;;;3.17;2.87;;;20.20;99.90;;;;;;4974891;28;20450;-63
2022/09/03 15:10:16;;;;;;;4.67;3.40;;;20.20;99.90;;;;;;4974638;28;20462;-64
2022/09/03 15:12:49;;;;;;;3.43;3.13;;;20.10;99.90;;;;;;4975081;28;20438;-63
2022/09/03 15:15:20;;;;;;;3.23;3.03;;;20.10;99.90;;;;;;4975052;28;20435;-63
2022/09/03 15:17:56;;;;;;;3.53;3.20;;;20.00;99.90;;;;;;4975093;28;20446;-63
2022/09/03 15:20:32;;;;;;;3.70;3.40;;;20.00;99.90;;;;;;4974970;28;20534;-62
2022/09/03 15:23:25;;;;;;;4.30;3.70;;;19.90;99.90;;;;;;4975011;28;20806;-63
2022/09/03 15:26:20;;;;;;;4.40;3.40;;;19.90;99.90;;;;;;4974601;28;20466;-63
2022/09/03 15:29:00;;;;;;;3.43;3.13;;;20.00;99.90;;;;;;4974890;28;20454;-63
2022/09/03 15:31:38;;;;;;;4.00;3.70;;;20.20;99.90;;;;;;4974494;28;20848;-64
2022/09/03 15:34:15;;;;;;;3.10;2.80;;;20.50;99.90;;;;;;4974783;28;20476;-64
2022/09/03 15:36:47;;;;;;;2.60;2.40;;;20.70;99.90;;;;;;4974897;28;20442;-64
2022/09/03 15:39:19;;;;;;;2.80;2.60;;;21.00;99.90;;;;;;4974709;28;20443;-64
2022/09/03 15:41:51;;;;;;;6.57;4.83;;;21.30;99.90;;;;;;4974689;28;20470;-64
2022/09/03 15:44:19;;;;;;;4.47;4.07;;;21.40;99.90;;;;;;4974730;28;20481;-64
2022/09/03 15:46:55;;;;;;;3.80;3.43;;;21.40;99.90;;;;;;4974711;28;20455;-63
2022/09/03 15:49:34;;;;;;;3.47;3.17;;;21.50;99.90;;;;;;4975180;28;20493;-63
2022/09/03 15:52:16;;;;;;;3.47;3.13;;;21.60;99.90;;;;;;4974523;28;20490;-63
2022/09/03 15:54:50;;;;;;;3.37;3.17;;;21.60;99.90;;;;;;4975052;28;20450;-63
2022/09/03 15:57:22;;;;;;;3.33;2.90;;;21.60;99.90;;;;;;4977838;28;20438;-63
2022/09/03 15:59:59;;;;;;;4.10;3.50;;;21.60;99.90;;;;;;4978246;28;20458;-63
2022/09/03 16:02:33;;;;;;;2.90;2.70;;;21.60;99.90;;;;;;4977469;28;20850;-63
2022/09/03 16:05:08;;;;;;;3.33;3.03;;;21.60;99.90;;;;;;4978040;28;20481;-63
2022/09/03 16:07:57;;;;;;;2.90;2.70;;;21.50;99.90;;;;;;4978489;28;20438;-63
2022/09/03 16:10:40;;;;;;;3.43;3.20;;;21.50;99.90;;;;;;4977913;28;20553;-64
2022/09/03 16:13:20;;;;;;;4.60;4.20;;;21.40;99.90;;;;;;4977948;28;20461;-64
2022/09/03 16:15:58;;;;;;;7.67;3.20;;;21.40;99.90;;;;;;4977846;28;20537;-64
2022/09/03 16:18:29;;;;;;;3.13;2.93;;;21.30;99.90;;;;;;4977926;28;20442;-63
2022/09/03 16:21:01;;;;;;;3.67;3.37;;;21.20;99.90;;;;;;4977605;28;20521;-64
2022/09/03 16:23:32;;;;;;;3.93;3.70;;;21.20;99.90;;;;;;4977737;28;20954;-64
2022/09/03 16:26:05;;;;;;;4.23;3.93;;;21.10;99.90;;;;;;4977818;28;20470;-64
2022/09/03 16:28:41;;;;;;;3.60;3.30;;;21.10;99.90;;;;;;4977616;28;20449;-64
2022/09/03 16:31:28;;;;;;;3.93;3.60;;;21.00;99.90;;;;;;4977445;28;20489;-64
2022/09/03 16:34:05;;;;;;;3.70;3.47;;;21.00;99.90;;;;;;4977447;28;20446;-64
2022/09/03 16:36:44;;;;;;;4.30;3.97;;;21.00;99.90;;;;;;4977510;28;20442;-64
2022/09/03 16:39:22;;;;;;;4.13;3.70;;;21.00;99.90;;;;;;4977500;28;20616;-64
2022/09/03 16:41:59;;;;;;;3.50;3.30;;;21.00;99.90;;;;;;4977372;28;20470;-64
2022/09/03 16:44:38;;;;;;;5.10;3.40;;;21.10;99.90;;;;;;4977623;28;20443;-64
2022/09/03 16:47:17;;;;;;;13.43;4.40;;;21.10;99.90;;;;;;4977884;28;20489;-64
2022/09/03 16:49:55;;;;;;;3.70;3.40;;;21.20;99.90;;;;;;4977249;28;20812;-64
2022/09/03 16:52:31;;;;;;;3.20;3.00;;;21.10;99.90;;;;;;4976862;28;20487;-64
2022/09/03 16:55:12;;;;;;;3.33;3.03;;;21.10;99.90;;;;;;4977311;28;20833;-64
2022/09/03 16:57:56;;;;;;;3.53;3.23;;;21.20;99.90;;;;;;4976839;28;20851;-64
2022/09/03 17:00:26;;;;;;;3.43;3.23;;;21.20;99.90;;;;;;4976793;28;20442;-64
2022/09/03 17:03:21;;;;;;;2.80;2.60;;;21.30;99.90;;;;;;4976919;28;20447;-64
2022/09/03 17:06:18;;;;;;;3.30;3.00;;;21.30;99.90;;;;;;4977019;28;20443;-65
2022/09/03 17:08:54;;;;;;;3.87;3.57;;;21.40;99.90;;;;;;4967085;28;20462;-65
2022/09/03 17:11:42;;;;;;;6.30;3.30;;;21.40;99.90;;;;;;4977273;28;20573;-65
2022/09/03 17:14:23;;;;;;;3.90;3.57;;;21.40;99.90;;;;;;4976998;28;20459;-65
2022/09/03 17:17:01;;;;;;;3.73;3.43;;;21.50;99.90;;;;;;4977122;28;20439;-64
2022/09/03 17:19:39;;;;;;;7.10;3.97;;;21.50;99.90;;;;;;4977211;28;20438;-64
2022/09/03 17:22:17;;;;;;;3.37;3.07;;;21.40;99.90;;;;;;4976905;28;20474;-65